Evelyn Maersk — OXHV2 — position and weather

sailwx.info

Track history (hours):
 
Tides and Currents Weather Stations Pressure Air Temp Water Temp Dewpoint Dewpoint Depression Visibility Wind Speed Wind Dir Waves Ship Positions

Evelyn Maersk

Last reported at 2016-Aug-21 08:23 UTC. Time now 2016-Aug-30 10:55 UTC.
Position N 30°36' E 032°19'.
Warning: this ship's position is 9 days out of date.

Length 398 m; draft 15.7 m.

Type: Ship (hazmat cat A). MMSI: 220496000.

Date/timePositionNaut miles runAvg speedWind from/ knotsBaromVisibWave heightAir tempDewpointWater temp
2016-Aug-21 08:23N 30°36' E 032°19'34 8.6
2016-Aug-21 04:26N 31°10' E 032°20'7 7.9
2016-Aug-21 03:31N 31°17' E 032°22'9 9.1
2016-Aug-21 02:32N 31°26' E 032°23'4 4.0
2016-Aug-21 01:34N 31°28' E 032°19'1 0.5
2016-Aug-21 00:33N 31°28' E 032°19'0 0.0
2016-Aug-20 23:24N 31°28' E 032°19'0 0.0
2016-Aug-20 22:27N 31°28' E 032°19'0 0.1
2016-Aug-20 21:33N 31°28' E 032°19'3 2.6
2016-Aug-20 20:33N 31°29' E 032°16'1313.2
2016-Aug-20 19:34N 31°38' E 032°05'1414.1
2016-Aug-20 18:33N 31°47' E 031°52'1914.3
2016-Aug-20 17:12N 31°53' E 031°30'914.1
2016-Aug-20 16:33N 31°56' E 031°20'1614.3
2016-Aug-20 15:27N 32°00' E 031°03'7414.7
2016-Aug-20 10:26N 32°23' E 029°40'1516.8
2016-Aug-20 09:33N 32°27' E 029°23'1816.4
2016-Aug-20 08:27N 32°32' E 029°02'15116.8
2016-Aug-19 23:27N 33°19' E 026°11'3016.2
2016-Aug-19 21:33N 33°28' E 025°36'49916.6
2016-Aug-18 15:23N 35°58' E 015°57'1416.5
2016-Aug-18 14:33N 36°03' E 015°41'1716.6
2016-Aug-18 13:31N 36°08' E 015°21'2116.4
2016-Aug-18 12:16N 36°14' E 014°56'1216.4
2016-Aug-18 11:33N 36°18' E 014°43'1616.3
2016-Aug-18 10:33N 36°23' E 014°23'1716.5
2016-Aug-18 09:33N 36°27' E 014°04'1716.8
2016-Aug-18 08:33N 36°32' E 013°44'1716.6
2016-Aug-18 07:34N 36°38' E 013°24'1616.3
2016-Aug-18 06:33N 36°43' E 013°05'1616.0
2016-Aug-18 05:33N 36°48' E 012°46'1616.0
2016-Aug-18 04:33N 36°54' E 012°27'1616.4
2016-Aug-18 03:33N 37°00' E 012°08'15015.8
2016-Aug-17 18:04N 37°21' E 009°02'28516.1
2016-Aug-17 00:21N 37°02' E 003°05'3116.0
2016-Aug-16 22:25N 36°57' E 002°26'1516.0
2016-Aug-16 21:30N 36°55' E 002°08'4715.8
2016-Aug-16 18:32N 36°47' E 001°11'3316.2
2016-Aug-16 16:30N 36°42' E 000°30'1616.5
2016-Aug-16 15:33N 36°40' E 000°11'2116.1
2016-Aug-16 14:15N 36°38' W 000°15'2715.9
2016-Aug-16 12:31N 36°33' W 000°49'6715.7
2016-Aug-16 08:13N 36°21' W 002°11'1515.9
2016-Aug-16 07:15N 36°19' W 002°30'1216.1
2016-Aug-16 06:33N 36°17' W 002°44'12017.1
2016-Aug-15 23:33N 35°59' W 005°11'1515.1
2016-Aug-15 22:33N 35°56' W 005°29'3 0.1
2016-Aug-15 00:29N 35°54' W 005°30'3 3.0
2016-Aug-14 23:23N 35°55' W 005°34'6 6.1
2016-Aug-14 22:29N 35°55' W 005°40'1718.1
2016-Aug-14 21:34N 35°54' W 006°01'12918.4
2016-Aug-14 14:33N 36°25' W 008°36'1818.3
2016-Aug-14 13:33N 36°30' W 008°58'1817.9
2016-Aug-14 12:33N 36°36' W 009°19'1817.9
2016-Aug-14 11:33N 36°49' W 009°34'1818.1
2016-Aug-14 10:33N 37°07' W 009°40'1818.2
2016-Aug-14 09:33N 37°24' W 009°44'1918.5
2016-Aug-14 08:33N 37°43' W 009°49'1918.8
2016-Aug-14 07:33N 38°01' W 009°54'1918.8
2016-Aug-14 06:33N 38°19' W 009°59'3718.6
2016-Aug-14 04:33N 38°56' W 010°06'1918.7
2016-Aug-14 03:33N 39°15' W 010°06'1918.6
2016-Aug-14 02:33N 39°33' W 010°06'2118.7
2016-Aug-14 01:27N 39°54' W 010°06'5618.8
2016-Aug-13 22:28N 40°50' W 010°06'1718.8
2016-Aug-13 21:33N 41°07' W 010°05'5918.7
2016-Aug-13 18:25N 42°06' W 010°07'3518.9
2016-Aug-13 16:33N 42°41' W 010°09'1918.9
2016-Aug-13 15:32N 43°00' W 010°08'1818.3
2016-Aug-13 14:33N 43°18' W 010°08'1918.5
2016-Aug-13 13:33N 43°35' W 009°56'1818.2
2016-Aug-13 12:33N 43°51' W 009°45'1818.3
2016-Aug-13 11:33N 44°07' W 009°31'14718.1
2016-Aug-13 03:26N 46°17' W 007°55'1920.9
2016-Aug-13 02:33N 46°33' W 007°42'4820.3
2016-Aug-13 00:11N 47°15' W 007°09'1320.5
2016-Aug-12 23:33N 47°27' W 006°60'6920.1
2016-Aug-12 20:07N 48°27' W 006°10'1920.4
2016-Aug-12 19:12N 48°44' W 005°57'1320.1
2016-Aug-12 18:33N 48°55' W 005°46'2120.6
2016-Aug-12 17:33N 49°06' W 005°19'2120.7
2016-Aug-12 16:33N 49°15' W 004°51'4520.4
2016-Aug-12 14:21N 49°38' W 003°51'1619.6
2016-Aug-12 13:33N 49°46' W 003°30'1919.3
2016-Aug-12 12:33N 49°55' W 003°04'1919.4
2016-Aug-12 11:33N 50°01' W 002°35'2020.1
2016-Aug-12 10:33N 50°06' W 002°05'2121.0
2016-Aug-12 09:33N 50°12' W 001°33'2221.8
2016-Aug-12 08:33N 50°17' W 001°00'2121.1
2016-Aug-12 07:33N 50°25' W 000°29'1716.9
2016-Aug-12 06:33N 50°29' W 000°04'1616.4
2016-Aug-12 05:33N 50°34' E 000°21'1615.7
2016-Aug-12 04:33N 50°39' E 000°44'1615.6
2016-Aug-12 03:30N 50°49' E 001°05'1516.1
2016-Aug-12 02:33N 50°58' E 001°24'1717.3
2016-Aug-12 01:34N 51°11' E 001°43'1716.9
2016-Aug-12 00:34N 51°25' E 001°58'1515.1
2016-Aug-11 23:33N 51°21' E 002°22'1514.5
2016-Aug-11 22:33N 51°23' E 002°45'1312.9
2016-Aug-11 21:34N 51°24' E 003°05'1615.6
2016-Aug-11 20:33N 51°25' E 003°30'9 9.3
2016-Aug-11 19:34N 51°22' E 003°44'1111.1
2016-Aug-11 18:33N 51°26' E 004°01'9 8.6
2016-Aug-11 17:33N 51°22' E 004°13'5 4.5
2016-Aug-11 16:32N 51°17' E 004°15'0 0.0
2016-Aug-11 15:32N 51°17' E 004°15'0 0.0
2016-Aug-11 14:32N 51°17' E 004°15'0 0.0
2016-Aug-11 13:32N 51°17' E 004°15'0 0.0
2016-Aug-11 12:32N 51°17' E 004°15'0 0.0
2016-Aug-11 11:26N 51°17' E 004°15'0 0.0
2016-Aug-11 10:32N 51°17' E 004°15'0 0.0
2016-Aug-11 09:23N 51°17' E 004°15'0 0.0
2016-Aug-11 08:29N 51°17' E 004°15'  
Track history (hours):
 
Tides and Currents Weather Stations Pressure Air Temp Water Temp Dewpoint Dewpoint Depression Visibility Wind Speed Wind Dir Waves Ship Positions

Evelyn Maersk

Last reported at 2016-Aug-21 08:23 UTC. Time now 2016-Aug-30 10:55 UTC.
Position N 30°36' E 032°19'.
Warning: this ship's position is 9 days out of date.

Length 398 m; draft 15.7 m.

Type: Ship (hazmat cat A). MMSI: 220496000.

Date/timePositionNaut miles runAvg speedWind from/ knotsBaromVisibWave heightAir tempDewpointWater temp
2016-Aug-21 08:23N 30°36' E 032°19'34 8.6
2016-Aug-21 04:26N 31°10' E 032°20'7 7.9
2016-Aug-21 03:31N 31°17' E 032°22'9 9.1
2016-Aug-21 02:32N 31°26' E 032°23'4 4.0
2016-Aug-21 01:34N 31°28' E 032°19'1 0.5
2016-Aug-21 00:33N 31°28' E 032°19'0 0.0
2016-Aug-20 23:24N 31°28' E 032°19'0 0.0
2016-Aug-20 22:27N 31°28' E 032°19'0 0.1
2016-Aug-20 21:33N 31°28' E 032°19'3 2.6
2016-Aug-20 20:33N 31°29' E 032°16'1313.2
2016-Aug-20 19:34N 31°38' E 032°05'1414.1
2016-Aug-20 18:33N 31°47' E 031°52'1914.3
2016-Aug-20 17:12N 31°53' E 031°30'914.1
2016-Aug-20 16:33N 31°56' E 031°20'1614.3
2016-Aug-20 15:27N 32°00' E 031°03'7414.7
2016-Aug-20 10:26N 32°23' E 029°40'1516.8
2016-Aug-20 09:33N 32°27' E 029°23'1816.4
2016-Aug-20 08:27N 32°32' E 029°02'15116.8
2016-Aug-19 23:27N 33°19' E 026°11'3016.2
2016-Aug-19 21:33N 33°28' E 025°36'49916.6
2016-Aug-18 15:23N 35°58' E 015°57'1416.5
2016-Aug-18 14:33N 36°03' E 015°41'1716.6
2016-Aug-18 13:31N 36°08' E 015°21'2116.4
2016-Aug-18 12:16N 36°14' E 014°56'1216.4
2016-Aug-18 11:33N 36°18' E 014°43'1616.3
2016-Aug-18 10:33N 36°23' E 014°23'1716.5
2016-Aug-18 09:33N 36°27' E 014°04'1716.8
2016-Aug-18 08:33N 36°32' E 013°44'1716.6
2016-Aug-18 07:34N 36°38' E 013°24'1616.3
2016-Aug-18 06:33N 36°43' E 013°05'1616.0
2016-Aug-18 05:33N 36°48' E 012°46'1616.0
2016-Aug-18 04:33N 36°54' E 012°27'1616.4
2016-Aug-18 03:33N 37°00' E 012°08'15015.8
2016-Aug-17 18:04N 37°21' E 009°02'28516.1
2016-Aug-17 00:21N 37°02' E 003°05'3116.0
2016-Aug-16 22:25N 36°57' E 002°26'1516.0
2016-Aug-16 21:30N 36°55' E 002°08'4715.8
2016-Aug-16 18:32N 36°47' E 001°11'3316.2
2016-Aug-16 16:30N 36°42' E 000°30'1616.5
2016-Aug-16 15:33N 36°40' E 000°11'2116.1
2016-Aug-16 14:15N 36°38' W 000°15'2715.9
2016-Aug-16 12:31N 36°33' W 000°49'6715.7
2016-Aug-16 08:13N 36°21' W 002°11'1515.9
2016-Aug-16 07:15N 36°19' W 002°30'1216.1
2016-Aug-16 06:33N 36°17' W 002°44'12017.1
2016-Aug-15 23:33N 35°59' W 005°11'1515.1
2016-Aug-15 22:33N 35°56' W 005°29'3 0.1
2016-Aug-15 00:29N 35°54' W 005°30'3 3.0
2016-Aug-14 23:23N 35°55' W 005°34'6 6.1
2016-Aug-14 22:29N 35°55' W 005°40'1718.1
2016-Aug-14 21:34N 35°54' W 006°01'12918.4
2016-Aug-14 14:33N 36°25' W 008°36'1818.3
2016-Aug-14 13:33N 36°30' W 008°58'1817.9
2016-Aug-14 12:33N 36°36' W 009°19'1817.9
2016-Aug-14 11:33N 36°49' W 009°34'1818.1
2016-Aug-14 10:33N 37°07' W 009°40'1818.2
2016-Aug-14 09:33N 37°24' W 009°44'1918.5
2016-Aug-14 08:33N 37°43' W 009°49'1918.8
2016-Aug-14 07:33N 38°01' W 009°54'1918.8
2016-Aug-14 06:33N 38°19' W 009°59'3718.6
2016-Aug-14 04:33N 38°56' W 010°06'1918.7
2016-Aug-14 03:33N 39°15' W 010°06'1918.6
2016-Aug-14 02:33N 39°33' W 010°06'2118.7
2016-Aug-14 01:27N 39°54' W 010°06'5618.8
2016-Aug-13 22:28N 40°50' W 010°06'1718.8
2016-Aug-13 21:33N 41°07' W 010°05'5918.7
2016-Aug-13 18:25N 42°06' W 010°07'3518.9
2016-Aug-13 16:33N 42°41' W 010°09'1918.9
2016-Aug-13 15:32N 43°00' W 010°08'1818.3
2016-Aug-13 14:33N 43°18' W 010°08'1918.5
2016-Aug-13 13:33N 43°35' W 009°56'1818.2
2016-Aug-13 12:33N 43°51' W 009°45'1818.3
2016-Aug-13 11:33N 44°07' W 009°31'14718.1
2016-Aug-13 03:26N 46°17' W 007°55'1920.9
2016-Aug-13 02:33N 46°33' W 007°42'4820.3
2016-Aug-13 00:11N 47°15' W 007°09'1320.5
2016-Aug-12 23:33N 47°27' W 006°60'6920.1
2016-Aug-12 20:07N 48°27' W 006°10'1920.4
2016-Aug-12 19:12N 48°44' W 005°57'1320.1
2016-Aug-12 18:33N 48°55' W 005°46'2120.6
2016-Aug-12 17:33N 49°06' W 005°19'2120.7
2016-Aug-12 16:33N 49°15' W 004°51'4520.4
2016-Aug-12 14:21N 49°38' W 003°51'1619.6
2016-Aug-12 13:33N 49°46' W 003°30'1919.3
2016-Aug-12 12:33N 49°55' W 003°04'1919.4
2016-Aug-12 11:33N 50°01' W 002°35'2020.1
2016-Aug-12 10:33N 50°06' W 002°05'2121.0
2016-Aug-12 09:33N 50°12' W 001°33'2221.8
2016-Aug-12 08:33N 50°17' W 001°00'2121.1
2016-Aug-12 07:33N 50°25' W 000°29'1716.9
2016-Aug-12 06:33N 50°29' W 000°04'1616.4
2016-Aug-12 05:33N 50°34' E 000°21'1615.7
2016-Aug-12 04:33N 50°39' E 000°44'1615.6
2016-Aug-12 03:30N 50°49' E 001°05'1516.1
2016-Aug-12 02:33N 50°58' E 001°24'1717.3
2016-Aug-12 01:34N 51°11' E 001°43'1716.9
2016-Aug-12 00:34N 51°25' E 001°58'1515.1
2016-Aug-11 23:33N 51°21' E 002°22'1514.5
2016-Aug-11 22:33N 51°23' E 002°45'1312.9
2016-Aug-11 21:34N 51°24' E 003°05'1615.6
2016-Aug-11 20:33N 51°25' E 003°30'9 9.3
2016-Aug-11 19:34N 51°22' E 003°44'1111.1
2016-Aug-11 18:33N 51°26' E 004°01'9 8.6
2016-Aug-11 17:33N 51°22' E 004°13'5 4.5
2016-Aug-11 16:32N 51°17' E 004°15'0 0.0
2016-Aug-11 15:32N 51°17' E 004°15'0 0.0
2016-Aug-11 14:32N 51°17' E 004°15'0 0.0
2016-Aug-11 13:32N 51°17' E 004°15'0 0.0
2016-Aug-11 12:32N 51°17' E 004°15'0 0.0
2016-Aug-11 11:26N 51°17' E 004°15'0 0.0
2016-Aug-11 10:32N 51°17' E 004°15'0 0.0
2016-Aug-11 09:23N 51°17' E 004°15'0 0.0
2016-Aug-11 08:29N 51°17' E 004°15'  

Dump ship's entire track history